createdAt,value
2019-05-20T00:00:43.455Z,2.25
2019-05-20T00:03:15.154Z,3.22
2019-05-20T00:05:47.299Z,2.30
2019-05-20T00:10:49.867Z,2.65
2019-05-20T00:13:21.576Z,3.08
2019-05-20T00:15:53.724Z,2.67
2019-05-20T00:18:25.241Z,2.77
2019-05-20T00:20:57.503Z,3.05
2019-05-20T00:23:29.343Z,3.33
2019-05-20T00:26:01.178Z,3.35
2019-05-20T00:28:33.237Z,3.25
2019-05-20T00:31:05.407Z,3.17
2019-05-20T00:33:37.233Z,3.55
2019-05-20T00:36:09.282Z,3.70
2019-05-20T00:38:40.986Z,4.05
2019-05-20T00:41:13.046Z,4.05
2019-05-20T00:43:44.654Z,4.03
2019-05-20T00:46:16.410Z,4.20
2019-05-20T00:48:48.396Z,3.62
2019-05-20T00:51:20.281Z,3.87
2019-05-20T00:53:52.248Z,3.87
2019-05-20T00:56:23.803Z,4.22
2019-05-20T00:58:55.801Z,4.15
2019-05-20T01:01:27.423Z,4.25
2019-05-20T01:03:59.616Z,3.92
2019-05-20T01:06:31.339Z,3.92
2019-05-20T01:09:04.805Z,3.30
2019-05-20T01:11:36.527Z,4.12
2019-05-20T01:14:09.012Z,3.60
2019-05-20T01:19:11.931Z,3.70
2019-05-20T01:21:43.473Z,3.37
2019-05-20T01:24:15.514Z,3.27
2019-05-20T01:26:47.262Z,3.22
2019-05-20T01:29:19.285Z,3.22
2019-05-20T01:31:51.032Z,3.62
2019-05-20T01:34:23.038Z,3.77
2019-05-20T01:36:54.868Z,3.00
2019-05-20T01:39:26.841Z,2.95
2019-05-20T01:41:58.633Z,3.22
2019-05-20T01:44:30.677Z,2.83
2019-05-20T01:47:02.659Z,2.55
2019-05-20T01:49:34.653Z,2.77
2019-05-20T01:52:06.380Z,3.15
2019-05-20T01:54:38.523Z,2.58
2019-05-20T01:57:10.196Z,3.00
2019-05-20T01:59:41.957Z,2.67
2019-05-20T02:02:13.605Z,2.80
2019-05-20T02:04:45.666Z,2.90
2019-05-20T02:07:17.617Z,2.62
2019-05-20T02:09:49.651Z,2.45
2019-05-20T02:12:21.279Z,2.83
2019-05-20T02:15:06.382Z,2.65
2019-05-20T02:20:09.141Z,2.20
2019-05-20T02:22:40.974Z,2.62
2019-05-20T02:25:12.777Z,2.33
2019-05-20T02:27:44.594Z,2.92
2019-05-20T02:30:16.644Z,2.60
2019-05-20T02:32:48.325Z,2.62
2019-05-20T02:35:20.236Z,3.12
2019-05-20T02:37:52.382Z,2.40
2019-05-20T02:40:24.373Z,2.72
2019-05-20T02:42:55.875Z,2.90
2019-05-20T02:45:27.934Z,3.00
2019-05-20T02:47:59.501Z,2.85
2019-05-20T02:50:31.440Z,3.37
2019-05-20T02:53:03.140Z,2.92
2019-05-20T02:55:34.857Z,2.70
2019-05-20T02:58:06.816Z,2.35
2019-05-20T03:00:38.588Z,2.15
2019-05-20T03:03:10.441Z,2.50
2019-05-20T03:05:42.229Z,2.58
2019-05-20T03:08:13.939Z,2.20
2019-05-20T03:10:46.262Z,2.08
2019-05-20T03:13:18.078Z,2.50
2019-05-20T03:15:49.991Z,2.55
2019-05-20T03:20:52.579Z,2.45
2019-05-20T03:23:25.220Z,2.72
2019-05-20T03:25:57.547Z,2.17
2019-05-20T03:28:29.280Z,2.58
2019-05-20T03:31:01.049Z,2.45
2019-05-20T03:33:32.967Z,2.45
2019-05-20T03:36:04.637Z,2.17
2019-05-20T03:38:36.462Z,2.15
2019-05-20T03:41:08.385Z,2.10
2019-05-20T03:46:11.092Z,2.02
2019-05-20T03:48:42.953Z,2.47
2019-05-20T03:51:14.769Z,2.42
2019-05-20T03:53:46.593Z,2.37
2019-05-20T03:56:18.345Z,2.27
2019-05-20T03:58:51.182Z,2.30
2019-05-20T04:01:22.714Z,2.27
2019-05-20T04:03:55.624Z,2.22
2019-05-20T04:06:27.433Z,2.60
2019-05-20T04:08:59.347Z,2.83
2019-05-20T04:11:30.877Z,3.02
2019-05-20T04:16:33.516Z,2.50
2019-05-20T04:19:05.264Z,2.70
2019-05-20T04:21:37.187Z,2.20
2019-05-20T04:26:40.131Z,2.87
2019-05-20T04:29:11.899Z,2.72
2019-05-20T04:31:43.517Z,3.08
2019-05-20T04:34:15.266Z,3.12
2019-05-20T04:36:47.230Z,3.20
2019-05-20T04:39:18.880Z,3.30
2019-05-20T04:41:50.509Z,4.25
2019-05-20T04:44:22.231Z,3.72
2019-05-20T04:46:53.946Z,4.05
2019-05-20T04:49:25.803Z,3.55
2019-05-20T04:51:57.687Z,3.98
2019-05-20T04:54:29.767Z,3.30
2019-05-20T04:57:02.620Z,5.10
2019-05-20T04:59:34.471Z,4.37
2019-05-20T05:02:07.305Z,4.28
2019-05-20T05:04:39.218Z,3.80
2019-05-20T05:07:11.079Z,4.37
2019-05-20T05:09:43.147Z,3.87
2019-05-20T05:12:14.696Z,4.58
2019-05-20T05:14:46.550Z,4.25
2019-05-20T05:17:18.349Z,4.95
2019-05-20T05:19:50.192Z,4.60
2019-05-20T05:22:21.797Z,5.00
2019-05-20T05:24:53.845Z,5.20
2019-05-20T05:27:25.652Z,5.28
2019-05-20T05:29:57.522Z,5.22
2019-05-20T05:32:41.694Z,4.92
2019-05-20T05:35:14.943Z,4.87
2019-05-20T05:37:46.624Z,4.72
2019-05-20T05:40:19.154Z,4.30
2019-05-20T05:42:50.980Z,5.40
2019-05-20T05:45:28.919Z,4.70
2019-05-20T05:47:59.273Z,4.72
2019-05-20T05:50:31.155Z,5.08
2019-05-20T05:53:02.863Z,5.72
2019-05-20T05:55:34.847Z,6.15
2019-05-20T05:58:08.724Z,4.95
2019-05-20T06:00:40.621Z,4.70
2019-05-20T06:03:13.346Z,5.53
2019-05-20T06:05:44.957Z,6.25
2019-05-20T06:08:16.846Z,5.90
2019-05-20T06:10:48.475Z,5.78
2019-05-20T06:13:20.206Z,6.12
2019-05-20T06:15:54.581Z,5.80
2019-05-20T06:18:25.706Z,5.72
2019-05-20T06:20:57.352Z,5.83
2019-05-20T06:23:29.171Z,5.20
2019-05-20T06:26:01.003Z,5.70
2019-05-20T06:28:32.654Z,4.97
2019-05-20T06:31:04.399Z,6.00
2019-05-20T06:33:36.458Z,5.70
2019-05-20T06:36:08.412Z,5.22
2019-05-20T06:38:44.381Z,5.90
2019-05-20T06:41:16.253Z,6.12
2019-05-20T06:43:47.887Z,5.90
2019-05-20T06:46:20.052Z,6.15
2019-05-20T06:48:51.821Z,7.17
2019-05-20T06:51:23.732Z,6.67
2019-05-20T06:53:55.613Z,7.40
2019-05-20T06:56:27.293Z,7.33
2019-05-20T06:59:00.386Z,6.42
2019-05-20T07:01:31.946Z,5.95
2019-05-20T07:04:04.026Z,6.03
2019-05-20T07:06:45.311Z,6.25
2019-05-20T07:09:09.062Z,6.03
2019-05-20T07:11:51.941Z,5.53
2019-05-20T07:14:14.337Z,5.55
2019-05-20T07:16:46.400Z,6.15
2019-05-20T07:19:18.131Z,5.42
2019-05-20T07:21:50.097Z,5.50
2019-05-20T07:24:21.903Z,5.83
2019-05-20T07:26:53.440Z,5.65
2019-05-20T07:29:25.625Z,5.72
2019-05-20T07:31:57.224Z,5.45
2019-05-20T07:34:29.081Z,5.62
2019-05-20T07:37:03.623Z,5.20
2019-05-20T07:39:34.196Z,5.12
2019-05-20T07:42:05.830Z,4.83
2019-05-20T07:44:37.669Z,4.95
2019-05-20T07:47:11.116Z,4.37
2019-05-20T07:49:43.597Z,4.45
2019-05-20T07:52:15.501Z,4.05
2019-05-20T07:54:48.455Z,4.60
2019-05-20T07:57:22.150Z,4.47
2019-05-20T07:59:55.585Z,3.90
2019-05-20T08:02:28.243Z,3.40
2019-05-20T08:04:59.997Z,3.62
2019-05-20T08:07:50.737Z,3.15
2019-05-20T08:10:07.304Z,3.10
2019-05-20T08:12:39.477Z,3.85
2019-05-20T08:15:11.803Z,3.25
2019-05-20T08:17:43.373Z,3.15
2019-05-20T08:20:15.618Z,2.98
2019-05-20T08:22:47.273Z,2.80
2019-05-20T08:25:19.291Z,3.10
2019-05-20T08:27:50.846Z,2.72
2019-05-20T08:30:34.464Z,2.55
2019-05-20T08:33:06.460Z,3.00
2019-05-20T08:35:38.176Z,2.65
2019-05-20T08:38:10.304Z,2.25
2019-05-20T08:40:42.757Z,2.33
2019-05-20T08:43:14.406Z,2.52
2019-05-20T08:45:47.138Z,1.95
2019-05-20T08:48:19.253Z,1.67
2019-05-20T08:50:51.009Z,1.95
2019-05-20T08:53:22.670Z,1.72
2019-05-20T08:55:54.380Z,2.37
2019-05-20T08:58:26.216Z,2.42
2019-05-20T09:00:57.934Z,1.95
2019-05-20T09:03:30.569Z,1.90
2019-05-20T09:06:02.563Z,1.75
2019-05-20T09:11:05.514Z,2.22
2019-05-20T09:13:37.231Z,1.70
2019-05-20T09:16:08.853Z,2.27
2019-05-20T09:18:40.519Z,2.30
2019-05-20T09:21:12.451Z,2.42
2019-05-20T09:23:44.480Z,1.98
2019-05-20T09:26:15.986Z,1.90
2019-05-20T09:28:47.874Z,1.60
2019-05-20T09:31:19.845Z,2.20
2019-05-20T09:33:52.213Z,2.10
2019-05-20T09:36:25.937Z,1.85
2019-05-20T09:38:57.507Z,1.77
2019-05-20T09:44:00.077Z,1.90
2019-05-20T09:46:31.831Z,1.87
2019-05-20T09:49:03.627Z,1.87
2019-05-20T09:51:35.163Z,2.02
2019-05-20T09:54:06.883Z,1.75
2019-05-20T09:56:38.444Z,2.05
2019-05-20T09:59:10.304Z,2.20
2019-05-20T10:01:42.149Z,2.22
2019-05-20T10:04:15.181Z,2.20
2019-05-20T10:06:46.811Z,2.40
2019-05-20T10:09:18.529Z,1.80
2019-05-20T10:11:50.338Z,2.10
2019-05-20T10:14:22.417Z,1.87
2019-05-20T10:16:53.946Z,1.92
2019-05-20T10:19:25.715Z,1.90
2019-05-20T10:21:57.234Z,1.92
2019-05-20T10:24:28.951Z,2.40
2019-05-20T10:27:02.655Z,1.95
2019-05-20T10:29:34.407Z,1.77
2019-05-20T10:32:06.214Z,1.92
2019-05-20T10:37:09.245Z,2.22
2019-05-20T10:39:40.926Z,1.75
2019-05-20T10:42:12.596Z,1.52
2019-05-20T10:44:44.542Z,1.80
2019-05-20T10:47:16.028Z,2.20
2019-05-20T10:49:47.955Z,2.92
2019-05-20T10:52:20.507Z,2.33
2019-05-20T10:54:52.160Z,1.95
2019-05-20T10:57:23.820Z,2.00
2019-05-20T10:59:55.607Z,1.65
2019-05-20T11:02:31.165Z,1.50
2019-05-20T11:05:01.222Z,1.30
2019-05-20T11:07:32.895Z,1.50
2019-05-20T11:10:06.289Z,1.80
2019-05-20T11:12:37.811Z,1.90
2019-05-20T11:15:10.019Z,1.50
2019-05-20T11:20:12.772Z,1.42
2019-05-20T11:25:16.557Z,1.93
2019-05-20T11:30:19.449Z,1.80
2019-05-20T11:32:51.578Z,1.40
2019-05-20T11:37:54.087Z,1.80
2019-05-20T11:40:25.948Z,1.80
2019-05-20T11:42:57.456Z,1.50
2019-05-20T11:45:29.097Z,1.95
2019-05-20T11:48:01.018Z,1.75
2019-05-20T11:50:32.693Z,1.85
2019-05-20T11:53:04.871Z,1.85
2019-05-20T11:55:36.770Z,1.62
2019-05-20T11:58:15.777Z,1.85
2019-05-20T12:00:41.983Z,1.67
2019-05-20T12:03:13.869Z,1.75
2019-05-20T12:05:45.510Z,1.80
2019-05-20T12:08:17.390Z,1.67
2019-05-20T12:10:48.893Z,1.70
2019-05-20T12:13:20.636Z,1.87
2019-05-20T12:15:52.361Z,2.00
2019-05-20T12:20:55.346Z,2.75
2019-05-20T12:25:58.321Z,2.50
2019-05-20T12:28:29.874Z,2.50
2019-05-20T12:31:01.634Z,3.45
2019-05-20T12:33:33.303Z,2.17
2019-05-20T12:36:05.964Z,2.37
2019-05-20T12:38:37.345Z,1.47
2019-05-20T12:41:08.941Z,1.90
2019-05-20T12:46:13.364Z,1.90
2019-05-20T12:48:44.927Z,1.77
2019-05-20T12:51:16.706Z,2.00
2019-05-20T12:53:48.681Z,2.30
2019-05-20T12:58:51.484Z,1.67
2019-05-20T13:01:23.128Z,1.55
2019-05-20T13:03:55.280Z,1.57
2019-05-20T13:06:27.281Z,2.35
2019-05-20T13:08:59.041Z,3.10
2019-05-20T13:11:30.676Z,3.08
2019-05-20T13:14:02.438Z,2.40
2019-05-20T13:16:33.987Z,2.83
2019-05-20T13:19:06.098Z,2.10
2019-05-20T13:21:38.136Z,3.12
2019-05-20T13:24:09.879Z,2.65
2019-05-20T13:26:41.642Z,2.77
2019-05-20T13:29:13.531Z,2.30
2019-05-20T13:31:45.139Z,2.33
2019-05-20T13:34:18.502Z,2.33
2019-05-20T13:36:50.805Z,2.10
2019-05-20T13:39:22.400Z,1.70
2019-05-20T13:41:54.218Z,1.50
2019-05-20T13:44:26.130Z,2.10
2019-05-20T13:46:57.634Z,1.65
2019-05-20T13:49:29.346Z,1.60
2019-05-20T13:52:00.972Z,1.70
2019-05-20T13:54:32.911Z,1.45
2019-05-20T13:57:04.382Z,2.00
2019-05-20T13:59:36.051Z,1.90
2019-05-20T14:04:39.899Z,2.10
2019-05-20T14:07:13.174Z,2.00
2019-05-20T14:09:44.851Z,2.08
2019-05-20T14:12:16.657Z,2.25
2019-05-20T14:14:48.444Z,2.70
2019-05-20T14:19:51.045Z,2.20
2019-05-20T14:22:22.660Z,2.08
2019-05-20T14:24:54.460Z,2.10
2019-05-20T14:27:26.140Z,1.70
2019-05-20T14:29:58.304Z,1.92
2019-05-20T14:32:30.021Z,1.77
2019-05-20T14:35:01.909Z,1.55
2019-05-20T14:37:34.042Z,1.40
2019-05-20T14:40:07.205Z,1.57
2019-05-20T14:42:38.827Z,1.80
2019-05-20T14:45:10.885Z,2.00
2019-05-20T14:50:13.736Z,1.67
2019-05-20T14:55:16.096Z,2.08
2019-05-20T14:57:47.797Z,1.90
2019-05-20T15:00:22.347Z,2.22
2019-05-20T15:02:54.482Z,1.95
2019-05-20T15:05:26.346Z,2.20
2019-05-20T15:07:58.303Z,1.67
2019-05-20T15:13:00.687Z,2.08
2019-05-20T15:18:04.002Z,1.55
2019-05-20T15:23:06.634Z,1.60
2019-05-20T15:25:38.648Z,1.77
2019-05-20T15:28:10.335Z,1.55
2019-05-20T15:30:42.016Z,1.80
2019-05-20T15:33:14.256Z,1.80
2019-05-20T15:35:46.207Z,2.17
2019-05-20T15:38:17.946Z,1.60
2019-05-20T15:40:49.513Z,1.65
2019-05-20T15:43:21.223Z,1.42
2019-05-20T15:45:52.845Z,1.57
2019-05-20T15:48:24.731Z,1.30
2019-05-20T15:50:56.234Z,1.45
2019-05-20T15:53:28.049Z,1.45
2019-05-20T15:55:59.647Z,1.80
2019-05-20T15:58:31.418Z,1.85
2019-05-20T16:01:02.962Z,2.22
2019-05-20T16:03:36.627Z,2.33
2019-05-20T16:06:08.951Z,2.27
2019-05-20T16:08:40.789Z,2.00
2019-05-20T16:11:12.362Z,1.52
2019-05-20T16:13:44.213Z,1.65
2019-05-20T16:16:15.855Z,1.70
2019-05-20T16:18:47.532Z,1.67
2019-05-20T16:21:19.119Z,1.90
2019-05-20T16:23:51.369Z,1.60
2019-05-20T16:26:23.333Z,1.70
2019-05-20T16:31:26.068Z,1.67
2019-05-20T16:33:59.621Z,1.50
2019-05-20T16:36:31.569Z,1.50
2019-05-20T16:39:03.308Z,1.65
2019-05-20T16:41:35.277Z,1.12
2019-05-20T16:44:07.037Z,1.50
2019-05-20T16:46:39.853Z,1.60
2019-05-20T16:49:11.764Z,1.45
2019-05-20T16:51:43.765Z,1.55
2019-05-20T16:54:15.411Z,1.40
2019-05-20T16:56:47.424Z,1.95
2019-05-20T16:59:19.047Z,1.40
2019-05-20T17:01:50.711Z,1.70
2019-05-20T17:04:22.327Z,1.60
2019-05-20T17:06:55.220Z,1.55
2019-05-20T17:09:26.699Z,1.70
2019-05-20T17:11:58.465Z,1.90
2019-05-20T17:14:30.691Z,2.05
2019-05-20T17:17:02.478Z,2.25
2019-05-20T17:19:35.634Z,2.33
2019-05-20T17:22:07.672Z,2.30
2019-05-20T17:24:40.446Z,2.27
2019-05-20T17:27:11.994Z,2.30
2019-05-20T17:29:43.911Z,2.20
2019-05-20T17:32:16.082Z,2.02
2019-05-20T17:34:48.381Z,2.52
2019-05-20T17:37:20.012Z,2.60
2019-05-20T17:39:51.895Z,2.22
2019-05-20T17:42:23.405Z,1.80
2019-05-20T17:44:55.301Z,2.35
2019-05-20T17:47:26.930Z,2.62
2019-05-20T17:49:59.075Z,2.37
2019-05-20T17:52:30.897Z,2.60
2019-05-20T17:55:02.973Z,2.30
2019-05-20T17:57:35.347Z,2.20
2019-05-20T18:00:12.655Z,2.62
2019-05-20T18:02:45.294Z,1.95
2019-05-20T18:05:17.047Z,2.35
2019-05-20T18:07:49.736Z,1.82
2019-05-20T18:10:22.978Z,1.70
2019-05-20T18:12:54.943Z,1.90
2019-05-20T18:15:26.416Z,2.25
2019-05-20T18:17:58.317Z,1.98
2019-05-20T18:20:30.055Z,2.60
2019-05-20T18:23:02.180Z,2.05
2019-05-20T18:25:33.664Z,1.85
2019-05-20T18:28:05.504Z,1.80
2019-05-20T18:30:37.147Z,2.20
2019-05-20T18:33:09.122Z,2.52
2019-05-20T18:35:42.721Z,2.22
2019-05-20T18:38:14.830Z,2.10
2019-05-20T18:40:47.183Z,1.92
2019-05-20T18:43:19.038Z,2.60
2019-05-20T18:45:50.623Z,2.55
2019-05-20T18:48:22.776Z,2.40
2019-05-20T18:50:54.544Z,2.30
2019-05-20T18:53:26.471Z,2.25
2019-05-20T18:55:58.018Z,3.60
2019-05-20T18:58:29.920Z,2.92
2019-05-20T19:01:01.828Z,2.10
2019-05-20T19:03:34.111Z,2.85
2019-05-20T19:06:06.075Z,2.60
2019-05-20T19:08:37.611Z,3.12
2019-05-20T19:11:09.492Z,3.42
2019-05-20T19:13:42.584Z,3.00
2019-05-20T19:16:15.357Z,2.80
2019-05-20T19:18:47.011Z,2.83
2019-05-20T19:21:19.084Z,3.20
2019-05-20T19:23:50.874Z,2.95
2019-05-20T19:26:25.398Z,2.55
2019-05-20T19:28:56.236Z,2.60
2019-05-20T19:31:28.209Z,2.65
2019-05-20T19:34:00.109Z,3.27
2019-05-20T19:36:31.971Z,4.15
2019-05-20T19:39:04.860Z,2.92
2019-05-20T19:41:38.373Z,2.50
2019-05-20T19:44:13.202Z,3.25
2019-05-20T19:46:43.879Z,3.58
2019-05-20T19:49:15.773Z,4.15
2019-05-20T19:51:47.755Z,3.80
2019-05-20T19:54:19.317Z,2.62
2019-05-20T19:56:51.160Z,3.52
2019-05-20T19:59:22.686Z,3.25
2019-05-20T20:01:54.850Z,3.25
2019-05-20T20:04:26.585Z,3.30
2019-05-20T20:06:58.513Z,3.30
2019-05-20T20:09:30.349Z,3.12
2019-05-20T20:12:02.008Z,2.75
2019-05-20T20:14:34.076Z,3.22
2019-05-20T20:17:06.568Z,3.20
2019-05-20T20:22:09.166Z,3.95
2019-05-20T20:24:41.212Z,3.87
2019-05-20T20:27:12.863Z,3.80
2019-05-20T20:29:44.632Z,3.40
2019-05-20T20:32:16.083Z,3.53
2019-05-20T20:34:48.030Z,3.50
2019-05-20T20:37:19.897Z,3.35
2019-05-20T20:39:51.854Z,3.22
2019-05-20T20:42:23.443Z,3.67
2019-05-20T20:44:55.318Z,3.17
2019-05-20T20:47:40.882Z,3.20
2019-05-20T20:50:01.462Z,3.30
2019-05-20T20:55:05.682Z,3.62
2019-05-20T20:57:37.800Z,3.12
2019-05-20T21:02:52.704Z,3.62
2019-05-20T21:05:14.461Z,3.42
2019-05-20T21:07:46.011Z,4.05
2019-05-20T21:10:18.404Z,3.45
2019-05-20T21:15:20.981Z,4.00
2019-05-20T21:17:52.755Z,4.45
2019-05-20T21:20:24.851Z,4.03
2019-05-20T21:22:56.778Z,4.20
2019-05-20T21:25:28.775Z,3.55
2019-05-20T21:28:00.382Z,3.65
2019-05-20T21:30:32.125Z,3.95
2019-05-20T21:33:09.362Z,3.90
2019-05-20T21:35:37.509Z,4.45
2019-05-20T21:38:09.286Z,3.85
2019-05-20T21:40:41.110Z,3.70
2019-05-20T21:43:12.667Z,3.72
2019-05-20T21:45:44.666Z,3.80
2019-05-20T21:48:17.673Z,3.72
2019-05-20T21:50:49.473Z,3.67
2019-05-20T21:53:21.382Z,4.03
2019-05-20T21:55:52.944Z,3.35
2019-05-20T21:58:24.800Z,3.35
2019-05-20T22:00:56.822Z,3.63
2019-05-20T22:03:28.577Z,3.50
2019-05-20T22:06:00.361Z,3.47
2019-05-20T22:08:32.236Z,3.90
2019-05-20T22:11:04.303Z,3.52
2019-05-20T22:13:35.910Z,3.90
2019-05-20T22:16:07.871Z,3.62
2019-05-20T22:18:40.009Z,3.60
2019-05-20T22:23:45.829Z,3.67
2019-05-20T22:26:17.365Z,3.58
2019-05-20T22:28:49.192Z,3.50
2019-05-20T22:31:20.674Z,3.35
2019-05-20T22:33:52.666Z,4.03
2019-05-20T22:36:24.315Z,3.65
2019-05-20T22:38:56.155Z,4.08
2019-05-20T22:41:27.911Z,3.70
2019-05-20T22:43:59.769Z,4.22
2019-05-20T22:46:31.549Z,3.58
2019-05-20T22:49:03.571Z,4.30
2019-05-20T22:51:35.557Z,4.10
2019-05-20T22:54:07.838Z,4.92
2019-05-20T22:56:39.581Z,3.72
2019-05-20T22:59:11.562Z,3.65
2019-05-20T23:01:43.201Z,4.05
2019-05-20T23:04:15.062Z,4.03
2019-05-20T23:06:46.666Z,4.25
2019-05-20T23:09:18.605Z,3.95
2019-05-20T23:11:50.335Z,3.80
2019-05-20T23:14:22.160Z,4.12
2019-05-20T23:16:53.958Z,3.83
2019-05-20T23:19:26.257Z,3.95
2019-05-20T23:24:29.062Z,3.62
2019-05-20T23:27:00.985Z,3.87
2019-05-20T23:29:32.744Z,3.97
2019-05-20T23:32:04.424Z,4.45
2019-05-20T23:34:36.528Z,4.15
2019-05-20T23:37:08.227Z,4.35
2019-05-20T23:39:40.354Z,3.83
2019-05-20T23:42:11.946Z,3.45
2019-05-20T23:44:43.943Z,3.62
2019-05-20T23:47:15.768Z,3.62
2019-05-20T23:49:47.736Z,3.92
2019-05-20T23:52:19.700Z,4.35
2019-05-20T23:54:51.598Z,4.25
2019-05-20T23:57:23.324Z,3.87
2019-05-20T23:59:55.399Z,3.85
